Time;durP1;ratioP1;P1;durP2;ratioP2;P2;SDS_P1;SDS_P2;PMS_P1;PMS_P2;Temp;Humidity;BMP_temperature;BMP_pressure;BME280_temperature;BME280_humidity;BME280_pressure;Samples;Min_cycle;Max_cycle;Signal;HPM_P1;HPM_P2
2022/12/17 13:06:42;;;;;;;112.37;32.87;;;-3.90;99.90;;;;;;4380218;28;662236;-66
2022/12/17 13:09:37;;;;;;;99.20;29.37;;;-3.90;99.90;;;;;;4396666;28;663888;-66
2022/12/17 13:12:30;;;;;;;103.10;31.30;;;-3.70;99.90;;;;;;4382836;28;661097;-66
2022/12/17 13:15:24;;;;;;;102.37;29.13;;;-3.50;99.90;;;;;;4382427;28;662862;-68
2022/12/17 13:18:18;;;;;;;100.17;31.70;;;-3.80;99.90;;;;;;4383621;28;661776;-66
2022/12/17 13:21:24;;;;;;;96.03;29.13;;;-3.80;99.90;;;;;;4362828;28;662154;-68
2022/12/17 13:24:12;;;;;;;90.13;27.70;;;-3.80;99.90;;;;;;4386354;28;661160;-67
2022/12/17 13:26:59;;;;;;;90.73;27.43;;;-3.90;99.90;;;;;;4408485;28;660230;-66
2022/12/17 13:29:46;;;;;;;118.23;35.43;;;-3.90;99.90;;;;;;4387015;28;660649;-66
2022/12/17 13:32:37;;;;;;;106.60;31.67;;;-3.80;99.90;;;;;;4407850;28;662350;-66
2022/12/17 13:35:27;;;;;;;110.20;33.00;;;-3.80;99.90;;;;;;4378370;28;662060;-68
2022/12/17 13:38:20;;;;;;;97.80;30.00;;;-3.80;99.90;;;;;;4412633;28;661585;-68
2022/12/17 13:41:08;;;;;;;105.70;31.20;;;-3.90;99.90;;;;;;4380934;28;662493;-66
2022/12/17 13:43:56;;;;;;;110.73;32.57;;;-4.00;99.90;;;;;;4391414;28;661939;-68
2022/12/17 13:46:44;;;;;;;101.73;31.13;;;-3.80;99.90;;;;;;4408939;28;662727;-66
2022/12/17 13:49:31;;;;;;;96.13;29.52;;;-3.90;99.90;;;;;;4380658;28;661423;-66
2022/12/17 13:52:20;;;;;;;102.93;27.20;;;-4.00;99.90;;;;;;4407769;28;661479;-65
2022/12/17 13:55:10;;;;;;;80.90;24.13;;;-4.00;99.90;;;;;;4381370;28;666726;-66
2022/12/17 13:57:57;;;;;;;103.60;30.43;;;-4.00;99.90;;;;;;4384665;28;661510;-66
2022/12/17 14:00:44;;;;;;;113.07;32.27;;;-4.00;99.90;;;;;;4407553;28;661928;-66
2022/12/17 14:03:31;;;;;;;119.10;33.30;;;-4.00;99.90;;;;;;4384399;28;661853;-66
2022/12/17 14:06:19;;;;;;;117.47;31.67;;;-4.00;99.90;;;;;;4409199;28;662243;-67
2022/12/17 14:09:06;;;;;;;133.00;33.53;;;-4.10;99.90;;;;;;4382867;28;661802;-68
2022/12/17 14:15:00;;;;;;;109.03;31.27;;;-3.90;99.90;;;;;;4382729;28;661650;-67
2022/12/17 14:17:48;;;;;;;123.93;34.00;;;-3.90;99.90;;;;;;4378242;28;662959;-66
2022/12/17 14:20:35;;;;;;;113.43;32.37;;;-3.90;99.90;;;;;;4385662;28;661799;-66
2022/12/17 14:23:26;;;;;;;127.13;34.70;;;-3.90;99.90;;;;;;4407288;28;661632;-67
2022/12/17 14:26:13;;;;;;;109.38;30.45;;;-4.00;99.90;;;;;;4381373;28;662750;-66
2022/12/17 14:29:02;;;;;;;112.80;34.13;;;-4.00;99.90;;;;;;4384999;28;662164;-66
2022/12/17 14:31:52;;;;;;;117.00;31.93;;;-4.00;99.90;;;;;;4400457;28;662386;-66
2022/12/17 14:34:42;;;;;;;108.70;31.52;;;-3.90;99.90;;;;;;4380100;28;662216;-66
2022/12/17 14:37:29;;;;;;;106.47;30.38;;;-3.90;99.90;;;;;;4380374;28;662403;-66
2022/12/17 14:40:16;;;;;;;133.80;33.33;;;-4.00;99.90;;;;;;4389036;28;661794;-66
2022/12/17 14:43:04;;;;;;;129.27;34.90;;;-4.10;99.90;;;;;;4407265;28;661791;-66
2022/12/17 14:49:02;;;;;;;112.03;31.60;;;-4.00;99.90;;;;;;4377650;28;662818;-66
2022/12/17 14:51:50;;;;;;;127.32;36.20;;;-4.00;99.90;;;;;;4375098;28;661537;-66
2022/12/17 14:54:37;;;;;;;114.87;29.80;;;-4.00;99.90;;;;;;4406896;28;662392;-67
2022/12/17 14:57:24;;;;;;;112.90;32.27;;;-4.10;99.90;;;;;;4414119;28;661504;-66
2022/12/17 15:00:13;;;;;;;97.07;26.43;;;-4.10;99.90;;;;;;4411058;28;662747;-66
2022/12/17 15:03:02;;;;;;;118.87;31.67;;;-4.00;99.90;;;;;;4836979;28;537359;-67
2022/12/17 15:05:51;;;;;;;109.33;31.37;;;-4.10;99.90;;;;;;4410598;28;661809;-66
2022/12/17 15:08:40;;;;;;;108.35;29.88;;;-4.00;99.90;;;;;;4383671;28;663198;-66
2022/12/17 15:11:27;;;;;;;130.47;36.07;;;-4.10;99.90;;;;;;4379106;28;663264;-67
2022/12/17 15:14:14;;;;;;;139.37;37.77;;;-4.10;99.90;;;;;;4404516;28;661082;-66
2022/12/17 15:17:01;;;;;;;129.27;33.50;;;-4.10;99.90;;;;;;4384114;28;661785;-66
2022/12/17 15:19:50;;;;;;;125.73;32.83;;;-4.10;99.90;;;;;;4402940;28;662970;-66
2022/12/17 15:22:37;;;;;;;123.93;32.67;;;-4.10;99.90;;;;;;4382981;28;663589;-66
2022/12/17 15:25:24;;;;;;;134.32;36.20;;;-4.20;99.90;;;;;;4401193;28;662086;-66
2022/12/17 15:28:11;;;;;;;133.35;35.25;;;-4.20;99.90;;;;;;4385359;28;661865;-66
2022/12/17 15:30:58;;;;;;;103.30;28.17;;;-4.20;99.90;;;;;;4412295;28;662924;-66
2022/12/17 15:33:46;;;;;;;138.53;33.77;;;-4.20;99.90;;;;;;4383735;28;661398;-66
2022/12/17 15:36:34;;;;;;;121.60;30.87;;;-4.20;99.90;;;;;;4417303;28;662960;-66
2022/12/17 15:39:21;;;;;;;123.75;34.92;;;-4.20;99.90;;;;;;4376233;28;662045;-67
2022/12/17 15:45:13;;;;;;;113.25;27.52;;;-4.20;99.90;;;;;;4383007;28;662136;-67
2022/12/17 15:48:01;;;;;;;118.33;30.50;;;-4.10;99.90;;;;;;4384006;28;662018;-66
2022/12/17 15:50:48;;;;;;;121.20;34.87;;;-4.20;99.90;;;;;;4405853;28;662432;-66
2022/12/17 15:53:37;;;;;;;147.07;36.50;;;-4.20;99.90;;;;;;4390791;28;661657;-67
2022/12/17 15:56:25;;;;;;;179.67;39.53;;;-4.20;99.90;;;;;;4413093;28;661897;-66
2022/12/17 15:59:12;;;;;;;144.88;36.85;;;-4.20;99.90;;;;;;4379171;28;662783;-66
2022/12/17 16:02:00;;;;;;;118.80;31.00;;;-4.10;99.90;;;;;;4401563;28;661752;-68
2022/12/17 16:04:47;;;;;;;139.30;36.13;;;-4.20;99.90;;;;;;4404119;28;662922;-66
2022/12/17 16:07:36;;;;;;;159.07;37.90;;;-4.20;99.90;;;;;;4403887;28;661701;-67
2022/12/17 16:10:25;;;;;;;163.03;39.33;;;-4.30;99.90;;;;;;4402099;28;663020;-66
2022/12/17 16:13:14;;;;;;;145.68;37.78;;;-4.20;99.90;;;;;;4389953;28;662032;-67
2022/12/17 16:16:01;;;;;;;131.88;34.97;;;-4.20;99.90;;;;;;4382380;28;661535;-67
2022/12/17 16:18:48;;;;;;;163.60;39.20;;;-4.10;99.90;;;;;;4404668;28;661646;-67
2022/12/17 16:21:35;;;;;;;143.50;34.33;;;-4.10;99.90;;;;;;4385455;28;661724;-66
2022/12/17 16:24:23;;;;;;;159.63;38.60;;;-4.20;99.90;;;;;;4405375;28;663363;-66
2022/12/17 16:27:11;;;;;;;175.27;42.40;;;-4.10;99.90;;;;;;4398526;28;661983;-68
2022/12/17 16:29:59;;;;;;;157.70;39.17;;;-4.20;99.90;;;;;;4402535;28;662607;-66
2022/12/17 16:32:46;;;;;;;151.87;37.03;;;-4.20;99.90;;;;;;4385975;28;661878;-67
2022/12/17 16:35:33;;;;;;;139.57;38.17;;;-4.20;99.90;;;;;;4407471;28;662690;-66
2022/12/17 16:38:21;;;;;;;166.23;42.63;;;-4.10;99.90;;;;;;4392722;28;661823;-68
2022/12/17 16:41:08;;;;;;;126.07;31.83;;;-4.10;99.90;;;;;;4409277;28;663047;-66
2022/12/17 16:43:57;;;;;;;160.77;41.90;;;-4.20;99.90;;;;;;4384085;28;662149;-66
2022/12/17 16:46:45;;;;;;;144.17;37.43;;;-4.20;99.90;;;;;;4407836;28;661282;-66
2022/12/17 16:49:32;;;;;;;166.23;39.93;;;-4.20;99.90;;;;;;4383150;28;663596;-66
2022/12/17 16:52:19;;;;;;;145.07;34.50;;;-4.20;99.90;;;;;;4407434;28;662097;-66
2022/12/17 16:55:06;;;;;;;161.45;38.92;;;-4.20;99.90;;;;;;4387321;28;661574;-67
2022/12/17 16:57:54;;;;;;;150.00;38.13;;;-4.20;99.90;;;;;;4406942;28;661731;-66
2022/12/17 17:00:42;;;;;;;161.07;39.33;;;-4.30;99.90;;;;;;4519057;28;661695;-67
2022/12/17 17:03:29;;;;;;;144.13;35.07;;;-4.20;99.90;;;;;;4745721;28;539071;-66
2022/12/17 17:06:16;;;;;;;149.87;36.70;;;-4.20;99.90;;;;;;4386990;28;662122;-66
2022/12/17 17:09:04;;;;;;;146.17;36.90;;;-4.30;99.90;;;;;;4406434;28;662872;-66
2022/12/17 17:11:51;;;;;;;125.70;30.53;;;-4.30;99.90;;;;;;4387115;28;662086;-67
2022/12/17 17:14:39;;;;;;;128.43;32.50;;;-4.30;99.90;;;;;;4412048;28;662066;-65
2022/12/17 17:17:27;;;;;;;128.47;29.70;;;-4.40;99.90;;;;;;4387550;28;661704;-66
2022/12/17 17:20:14;;;;;;;153.80;36.80;;;-4.40;99.90;;;;;;4406654;28;661579;-65
2022/12/17 17:23:02;;;;;;;130.97;31.83;;;-4.40;99.90;;;;;;4387799;28;661629;-67
2022/12/17 17:25:49;;;;;;;153.20;35.53;;;-4.40;99.90;;;;;;4410899;28;661786;-66
2022/12/17 17:28:36;;;;;;;159.57;37.17;;;-4.40;99.90;;;;;;4388805;28;662015;-66
2022/12/17 17:31:23;;;;;;;141.53;34.67;;;-4.50;99.90;;;;;;4404235;28;663989;-66
2022/12/17 17:34:13;;;;;;;159.20;36.47;;;-4.40;99.90;;;;;;4386843;28;661962;-66
2022/12/17 17:37:00;;;;;;;142.63;34.80;;;-4.50;99.90;;;;;;4386781;28;662654;-67
2022/12/17 17:39:47;;;;;;;150.77;35.77;;;-4.40;99.90;;;;;;4405862;28;663251;-67
2022/12/17 17:42:35;;;;;;;141.50;35.17;;;-4.40;99.90;;;;;;4404406;28;661875;-67
2022/12/17 17:45:22;;;;;;;119.28;27.08;;;-4.50;99.90;;;;;;4409161;28;661758;-66
2022/12/17 17:48:09;;;;;;;172.83;37.17;;;-4.50;99.90;;;;;;4402428;28;661613;-66
2022/12/17 17:50:58;;;;;;;170.90;40.80;;;-4.60;99.90;;;;;;4387080;28;662721;-66
2022/12/17 19:54:57;;;;;;;113.83;29.77;;;-5.60;99.90;;;;;;5077840;27;20794;-70
2022/12/17 19:57:44;;;;;;;108.57;26.40;;;-5.40;99.90;;;;;;5058860;27;20196;-70
2022/12/17 20:00:32;;;;;;;74.63;19.07;;;-5.40;99.90;;;;;;5047171;27;20204;-69
2022/12/17 20:03:19;;;;;;;99.07;25.53;;;-5.30;99.90;;;;;;5069108;27;20659;-67
2022/12/17 20:06:07;;;;;;;99.50;25.10;;;-5.30;99.90;;;;;;5058366;27;23711;-70
2022/12/17 20:08:58;;;;;;;92.80;22.47;;;-5.40;99.90;;;;;;5048772;27;20307;-67
2022/12/17 20:11:46;;;;;;;103.37;25.37;;;-5.40;99.90;;;;;;5049305;27;20675;-67
2022/12/17 20:14:34;;;;;;;82.73;22.27;;;-5.40;99.90;;;;;;5066013;27;20624;-67
2022/12/17 20:17:23;;;;;;;96.43;25.20;;;-5.40;99.90;;;;;;5056013;27;20603;-67
2022/12/17 20:20:11;;;;;;;93.30;24.37;;;-5.40;99.90;;;;;;5066238;27;20213;-66
2022/12/17 20:22:58;;;;;;;102.50;23.77;;;-5.30;99.90;;;;;;5051405;27;20839;-67
2022/12/17 20:25:45;;;;;;;118.53;29.00;;;-5.40;99.90;;;;;;5056712;27;20691;-69
2022/12/17 20:28:34;;;;;;;79.23;20.67;;;-5.30;99.90;;;;;;5057649;27;21075;-69
2022/12/17 20:31:21;;;;;;;87.50;21.57;;;-5.30;99.90;;;;;;5054151;27;20609;-69
2022/12/17 20:34:09;;;;;;;103.10;24.10;;;-5.30;99.90;;;;;;5088344;27;20671;-69
2022/12/17 20:36:56;;;;;;;100.70;25.10;;;-5.40;99.90;;;;;;5151506;27;20603;-68
2022/12/17 20:39:43;;;;;;;111.33;25.83;;;-5.30;99.90;;;;;;5122002;27;20693;-67
2022/12/17 20:42:30;;;;;;;79.53;20.17;;;-5.30;99.90;;;;;;5081439;27;20621;-69
2022/12/17 20:45:19;;;;;;;83.83;22.43;;;-5.30;99.90;;;;;;5162033;27;20347;-67
2022/12/17 20:48:06;;;;;;;96.63;25.23;;;-5.30;99.90;;;;;;5082700;27;20687;-67
2022/12/17 20:50:54;;;;;;;78.40;21.10;;;-5.30;99.90;;;;;;5067080;27;21034;-67
2022/12/17 20:53:41;;;;;;;98.43;24.33;;;-5.30;99.90;;;;;;5105341;27;20614;-67
2022/12/17 20:56:29;;;;;;;78.47;22.00;;;-5.30;99.90;;;;;;5051937;27;21607;-67
2022/12/17 20:59:17;;;;;;;114.67;25.07;;;-5.30;99.90;;;;;;5046439;27;20296;-67
2022/12/17 21:02:06;;;;;;;96.27;25.50;;;-5.30;99.90;;;;;;5037857;28;20608;-69
2022/12/17 21:04:53;;;;;;;100.33;24.43;;;-5.30;99.90;;;;;;5035499;28;20502;-69
2022/12/17 21:07:40;;;;;;;75.43;22.73;;;-5.30;99.90;;;;;;5048285;27;20237;-69
2022/12/17 21:10:27;;;;;;;81.77;21.33;;;-5.30;99.90;;;;;;5027864;28;20616;-70
2022/12/17 21:16:23;;;;;;;75.17;21.07;;;-5.40;99.90;;;;;;5031928;27;20679;-70
2022/12/17 21:19:12;;;;;;;83.07;21.53;;;-5.30;99.90;;;;;;5042551;27;20676;-69
2022/12/17 21:21:59;;;;;;;62.80;19.97;;;-5.20;99.90;;;;;;5049830;27;20656;-69
2022/12/17 21:24:47;;;;;;;71.83;18.37;;;-5.30;99.90;;;;;;5028680;27;20690;-69
2022/12/17 21:27:34;;;;;;;88.90;25.67;;;-5.20;99.90;;;;;;5051309;27;20291;-70
2022/12/17 21:30:21;;;;;;;95.47;24.07;;;-5.20;99.90;;;;;;5037975;27;20209;-70
2022/12/17 21:33:08;;;;;;;98.90;24.23;;;-5.20;99.90;;;;;;5034910;27;20589;-69
2022/12/17 21:36:00;;;;;;;88.57;23.03;;;-5.30;99.90;;;;;;5028660;27;20682;-67
2022/12/17 21:38:47;;;;;;;79.17;19.17;;;-5.20;99.90;;;;;;5038136;27;20698;-67
2022/12/17 21:41:36;;;;;;;66.90;19.27;;;-5.30;99.90;;;;;;5041631;27;21246;-67
2022/12/17 21:44:24;;;;;;;91.53;23.60;;;-5.20;99.90;;;;;;5052143;27;20741;-67
2022/12/17 21:47:11;;;;;;;85.80;23.20;;;-5.20;99.90;;;;;;5039527;28;20734;-67
2022/12/17 21:49:58;;;;;;;81.47;20.07;;;-5.20;99.90;;;;;;5074497;27;20624;-67
2022/12/17 21:52:46;;;;;;;53.73;17.30;;;-5.20;99.90;;;;;;5050766;27;20244;-69
2022/12/17 21:55:34;;;;;;;79.77;21.40;;;-5.30;99.90;;;;;;5139366;27;20640;-69
2022/12/17 21:58:21;;;;;;;84.97;22.17;;;-5.30;99.90;;;;;;5042676;27;21312;-67
2022/12/17 22:01:10;;;;;;;78.63;23.37;;;-5.30;99.90;;;;;;5038926;27;20631;-67
2022/12/17 22:03:58;;;;;;;88.30;24.93;;;-5.30;99.90;;;;;;5037474;27;20221;-69
2022/12/17 22:06:45;;;;;;;65.27;18.57;;;-5.30;99.90;;;;;;5028412;28;20597;-69
2022/12/17 22:09:33;;;;;;;73.20;22.57;;;-5.30;99.90;;;;;;5047853;27;20696;-69
2022/12/17 22:15:25;;;;;;;92.97;22.03;;;-5.20;99.90;;;;;;5084559;27;20966;-70
2022/12/17 22:18:12;;;;;;;95.43;23.73;;;-5.20;99.90;;;;;;5091868;27;20687;-71
2022/12/17 22:21:00;;;;;;;80.27;21.07;;;-5.10;99.90;;;;;;5047796;27;21242;-69
2022/12/17 22:23:47;;;;;;;71.87;19.87;;;-5.20;99.90;;;;;;5114119;27;20742;-68
2022/12/17 22:26:36;;;;;;;67.37;18.73;;;-5.10;99.90;;;;;;5047214;28;20205;-67
2022/12/17 22:35:33;;;;;;;49.43;14.80;;;-5.20;99.90;;;;;;5049292;27;20231;-67
2022/12/17 22:38:20;;;;;;;56.70;14.70;;;-5.20;99.90;;;;;;5052792;27;20615;-67
2022/12/17 22:41:07;;;;;;;68.83;16.67;;;-5.30;99.90;;;;;;5028880;27;20613;-70
2022/12/17 22:43:58;;;;;;;82.77;22.57;;;-5.30;99.90;;;;;;5040651;27;20644;-67
2022/12/17 22:46:45;;;;;;;84.20;21.87;;;-5.20;99.90;;;;;;5029207;27;20218;-67
2022/12/17 22:49:32;;;;;;;60.47;18.30;;;-5.10;99.90;;;;;;5075183;27;20259;-67
2022/12/17 22:52:19;;;;;;;30.50;11.33;;;-5.20;99.90;;;;;;5047224;27;20255;-67
2022/12/17 22:55:07;;;;;;;89.40;23.43;;;-5.20;99.90;;;;;;5046691;27;20205;-67
2022/12/17 22:57:55;;;;;;;78.70;22.97;;;-5.20;99.90;;;;;;5044571;27;20267;-67
2022/12/17 23:00:43;;;;;;;75.37;22.57;;;-5.20;99.90;;;;;;5027320;27;20612;-68
2022/12/17 23:03:30;;;;;;;78.83;22.10;;;-5.20;99.90;;;;;;5069232;27;20671;-67
2022/12/17 23:06:17;;;;;;;64.50;19.47;;;-5.20;99.90;;;;;;5140995;27;20330;-68
2022/12/17 23:09:05;;;;;;;73.77;20.47;;;-5.30;99.90;;;;;;5077684;27;20201;-70
2022/12/17 23:11:52;;;;;;;85.87;23.10;;;-5.30;99.90;;;;;;5038051;28;20712;-70
2022/12/17 23:14:39;;;;;;;66.93;18.17;;;-5.30;99.90;;;;;;5046486;27;20668;-67
2022/12/17 23:17:28;;;;;;;80.40;20.13;;;-5.20;99.90;;;;;;5112205;27;20227;-67
2022/12/17 23:20:15;;;;;;;46.53;14.30;;;-5.20;99.90;;;;;;5109353;27;20256;-67
2022/12/17 23:23:02;;;;;;;63.53;17.67;;;-5.20;99.90;;;;;;5143593;27;20606;-67
2022/12/17 23:25:49;;;;;;;68.77;19.30;;;-5.20;99.90;;;;;;5054969;27;20255;-67
2022/12/17 23:28:36;;;;;;;42.13;12.97;;;-5.20;99.90;;;;;;5033215;28;20234;-67
2022/12/17 23:31:24;;;;;;;68.37;18.40;;;-5.30;99.90;;;;;;5047773;27;20974;-69
2022/12/17 23:34:12;;;;;;;55.60;16.20;;;-5.30;99.90;;;;;;5072088;27;21242;-69
2022/12/17 23:36:59;;;;;;;63.73;16.20;;;-5.30;99.90;;;;;;5137958;27;21310;-70
2022/12/17 23:39:46;;;;;;;74.50;19.93;;;-5.30;99.90;;;;;;5134276;27;20228;-71
2022/12/17 23:42:34;;;;;;;65.37;20.73;;;-5.30;99.90;;;;;;5054236;27;20599;-69
2022/12/17 23:45:21;;;;;;;63.67;19.27;;;-5.30;99.90;;;;;;5030838;28;20707;-67
2022/12/17 23:48:08;;;;;;;67.50;18.63;;;-5.30;99.90;;;;;;5030216;28;20729;-67
2022/12/17 23:50:57;;;;;;;59.67;18.17;;;-5.30;99.90;;;;;;5077052;27;20613;-67
2022/12/17 23:53:44;;;;;;;48.80;15.00;;;-5.30;99.90;;;;;;5084469;27;20662;-67
2022/12/17 23:56:31;;;;;;;67.27;18.83;;;-5.20;99.90;;;;;;5106710;27;20635;-68
2022/12/17 23:59:18;;;;;;;64.47;18.47;;;-5.20;99.90;;;;;;5045899;28;20600;-67
